Nearby METAR* Reports

*"METAR [Météorologique Aviation Régulière] is the international standard code format for hourly surface weather observations which is analogous to the SA coding currently used in the US. The acronym roughly translates from French as Aviation Routine Weather Report." (Source: https://www.ncdc.noaa.gov/wdcmet/data-access-search-viewer-tools/metar-terminal-aerodrome-forecast-taf-faq)

 

KTEB - Teterboro, New Jersey, USA
Distance from station: ENE 2mi, 3km
Updated: 11/26/2020 5:51pm
Partly cloudy
Partly cloudy
 Wind from S
Wind: S 5 mph , 7 km/h
Temperature: 55°F , 13°C
Dew Point: 48°F , 9°C
Humidity: 77%
Barometer: 29.99 inHg , 1015.6 hPa
Clouds: Partly cloudy
Visibility: 10 miles , 16 km
Cloud details: Partly cloudy 5000 ft
2020/11/26 22:51 KTEB 262251Z 19004KT 10SM SCT050 13/09 A2999 RMK AO2 SLP156 T01330089
KNYC - Nyc/Central Park, New York, USA
Distance from station: SE 8mi, 13km
Updated: 11/26/2020 5:51pm
Partly cloudy
Partly cloudy
 Wind from varies
Wind: varies 3 mph , 6 km/h
Temperature: 61°F , 16°C
Dew Point: 46°F , 8°C
Humidity: 59%
Barometer: 30.03 inHg , 1016.9 hPa
Clouds: Partly cloudy
Visibility: 10 miles , 16 km
Cloud details: Partly cloudy 5000 ft
2020/11/26 22:51 KNYC 262251Z AUTO VRB03KT 10SM SCT050 16/08 A3003 RMK AO2 SLP159 T01560083 $
KCDW - Caldwell, New Jersey, USA
Distance from station: W 11mi, 17km
Updated: 11/26/2020 5:53pm
Mostly cloudy
Mostly cloudy
 Wind from calm
Wind: Calm
Temperature: 59°F , 15°C
Dew Point: 48°F , 9°C
Humidity: 68%
Barometer: 30.01 inHg , 1016.3 hPa
Clouds: Mostly cloudy
Visibility: 10 miles , 16 km
Cloud details: Mostly cloudy 5000 ft
2020/11/26 22:53 KCDW 262253Z 00000KT 10SM BKN050 15/09 A3001 RMK AO2 SLP167 T01500089 $
 
KLGA - Nyc/La Guardia, New York, USA
Distance from station: ESE 12mi, 19km
Updated: 11/26/2020 5:51pm
Few Clouds
Few Clouds
 Wind from WSW
Wind: WSW 9 mph , 15 km/h
Temperature: 63°F , 17°C
Dew Point: 46°F , 8°C
Humidity: 56%
Barometer: 30.00 inHg , 1015.9 hPa
Clouds: Few Clouds
Visibility: 10 miles , 16 km
Cloud details: Few Clouds 7000 ft
2020/11/26 22:51 KLGA 262251Z 25008KT 10SM FEW070 17/08 A3000 RMK AO2 SLP157 T01720083
KEWR - Newark, New Jersey, USA
Distance from station: SSW 13mi, 20km
Updated: 11/26/2020 5:51pm
Few Clouds
Few Clouds
 Wind from SSW
Wind: SSW 3 mph , 6 km/h
Temperature: 57°F , 14°C
Dew Point: 48°F , 9°C
Humidity: 72%
Barometer: 30.01 inHg , 1016.3 hPa
Clouds: Few Clouds
Visibility: 10 miles , 16 km
Cloud details: Few Clouds 4000 ft
Few Clouds 7000 ft
2020/11/26 22:51 KEWR 262251Z 21003KT 10SM FEW040 FEW070 14/09 A3001 RMK AO2 SLP161 T01390089 $
KMMU - Morristown Muni, New Jersey, USA
Distance from station: WSW 18mi, 29km
Updated: 11/26/2020 5:45pm
Partly cloudy
Partly cloudy
 Wind from W
Wind: W 3 mph , 6 km/h
Temperature: 52°F , 11°C
Dew Point: 50°F , 10°C
Humidity: 94%
Barometer: 30.01 inHg , 1016.3 hPa
Clouds: Partly cloudy
Visibility: 10 miles , 16 km
Cloud details: Partly cloudy 15000 ft
2020/11/26 22:45 KMMU 262245Z 26003KT 10SM SCT150 11/10 A3001
 
KLDJ - Linden, New Jersey, USA
Distance from station: SSW 19mi, 30km
Updated: 11/26/2020 5:55pm
Clear
Clear
 Wind from calm
Wind: Calm
Temperature: 57°F , 14°C
Dew Point: 48°F , 9°C
Humidity: 72%
Barometer: 30.01 inHg , 1016.3 hPa
Clouds: Clear
Visibility: 10 miles , 16 km
2020/11/26 22:55 KLDJ 262255Z AUTO 00000KT 10SM CLR 14/09 A3001 RMK AO2 T01420086
KJFK - Nyc/Jfk Arpt, New York, USA
Distance from station: SE 23mi, 36km
Updated: 11/26/2020 5:51pm
Few Clouds
Few Clouds
 Wind from W
Wind: W 8 mph , 13 km/h
Temperature: 55°F , 13°C
Dew Point: 50°F , 10°C
Humidity: 82%
Barometer: 30.01 inHg , 1016.3 hPa
Clouds: Few Clouds
Visibility: 10 miles , 16 km
Cloud details: Few Clouds 4000 ft
Few Clouds 6500 ft
2020/11/26 22:51 KJFK 262251Z 26007KT 10SM FEW040 FEW065 13/10 A3001 RMK AO2 SLP163 T01330100 $
KHPN - White Plains, New York, USA
Distance from station: NE 25mi, 40km
Updated: 11/26/2020 5:56pm
Partly cloudy
Partly cloudy
 Wind from calm
Wind: Calm
Temperature: 54°F , 12°C
Dew Point: 48°F , 9°C
Humidity: 82%
Barometer: 29.99 inHg , 1015.6 hPa
Clouds: Partly cloudy
Visibility: 10 miles , 16 km
Cloud details: Partly cloudy 4700 ft
2020/11/26 22:56 KHPN 262256Z 00000KT 10SM SCT047 12/09 A2999 RMK AO2 SLP155 T01220089
 
KSMQ - Somerville, New Jersey, USA
Distance from station: WSW 35mi, 56km
Updated: 11/26/2020 5:53pm
Clear
Clear
 Wind from calm
Wind: Calm
Temperature: 50°F , 10°C
Dew Point: 46°F , 8°C
Humidity: 88%
Barometer: 30.00 inHg , 1015.9 hPa
Clouds: Clear
Visibility: 10 miles , 16 km
2020/11/26 22:53 KSMQ 262253Z AUTO 00000KT 10SM CLR 10/08 A3000 RMK AO2 SLP158 T01000083
K12N - Andover, New Jersey, USA
Distance from station: WNW 36mi, 57km
Updated: 11/26/2020 5:54pm

 Wind from calm
Wind: Calm
Temperature: 54°F , 12°C
Dew Point: 48°F , 9°C
Humidity: 82%
Barometer: 30.01 inHg , 1016.3 hPa
2020/11/26 22:54 K12N 262254Z AUTO 00000KT 12/09 A3001 RMK AO1 SLP163 T01170094
KFRG - Farmingdale, New York, USA
Distance from station: ESE 36mi, 58km
Updated: 11/26/2020 5:53pm
Clear
Clear
 Wind from WSW
Wind: WSW 3 mph , 6 km/h
Temperature: 57°F , 14°C
Dew Point: 48°F , 9°C
Humidity: 72%
Barometer: 30.00 inHg , 1015.9 hPa
Clouds: Clear
Visibility: 10 miles , 16 km
2020/11/26 22:53 KFRG 262253Z 24003KT 10SM CLR 14/09 A3000 RMK AO2 SLP159 T01390089
 
KFWN - Sussex, New Jersey, USA
Distance from station: NW 37mi, 60km
Updated: 11/26/2020 5:53pm
Mostly cloudy
Mostly cloudy
 Wind from calm
Wind: Calm
Temperature: 55°F , 13°C
Dew Point: 46°F , 8°C
Humidity: 72%
Barometer: 30.01 inHg , 1016.3 hPa
Clouds: Mostly cloudy
Visibility: 10 miles , 16 km
Cloud details: Mostly cloudy 4700 ft
2020/11/26 22:53 KFWN 262253Z AUTO 00000KT 10SM BKN047 13/08 A3001 RMK AO2 SLP162 T01280083
KSWF - Newburgh/Stewart, New York, USA
Distance from station: 0 44mi, 72km
Updated: 11/26/2020 5:45pm
Overcast
Overcast
 Wind from W
Wind: W 9 mph , 15 km/h
Temperature: 55°F , 13°C
Dew Point: 52°F , 11°C
Humidity: 88%
Barometer: 29.99 inHg , 1015.6 hPa
Clouds: Overcast
Visibility: 10 miles , 16 km
Cloud details: Overcast 5000 ft
2020/11/26 22:45 KSWF 262245Z 28008KT 10SM OVC050 13/11 A2999
KMGJ - Montgomery, New York, USA
Distance from station: NNW 47mi, 75km
Updated: 11/26/2020 5:54pm
Overcast
Overcast
 Wind from S
Wind: S 6 mph , 9 km/h
Temperature: 55°F , 13°C
Dew Point: 48°F , 9°C
Humidity: 77%
Barometer: 29.98 inHg , 1015.2 hPa
Clouds: Overcast
Visibility: 10 miles , 16 km
Cloud details: Overcast 4800 ft
2020/11/26 22:54 KMGJ 262254Z AUTO 17005KT 10SM OVC048 13/09 A2998 RMK AO2 SLP152 T01280089
 
KDXR - Danbury, Connecticut, USA
Distance from station: NE 47mi, 76km
Updated: 11/26/2020 5:53pm
Clear
Clear
 Wind from calm
Wind: Calm
Temperature: 48°F , 9°C
Dew Point: 46°F , 8°C
Humidity: 94%
Barometer: 29.99 inHg , 1015.6 hPa
Clouds: Clear
Visibility: 9 miles , 14 km
2020/11/26 22:53 KDXR 262253Z 00000KT 9SM CLR 09/08 A2999
KBLM - Belmar/Farmdale, New Jersey, USA
Distance from station: S 48mi, 77km
Updated: 11/26/2020 5:56pm
Clear
Clear
 Wind from WSW
Wind: WSW 3 mph , 6 km/h
Temperature: 61°F , 16°C
Dew Point: 48°F , 9°C
Humidity: 63%
Barometer: 30.03 inHg , 1016.9 hPa
Clouds: Clear
Visibility: 10 miles , 16 km
2020/11/26 22:56 KBLM 262256Z AUTO 24003KT 10SM CLR 16/09 A3003 RMK AO2 SLP168 T01560089